Aumsville, Oregon
Current Conditions -  °F | °C
As of 5:56 PM on Saturday 25 Oct 2014 (Local Time) from KSLE Reporting Station
Overcast Overcast  
Wind Chill: 56°   Ceiling: 5000
Heat Index: 56°   Visibility: 10mi
Dew Point: 49°   Wind: 17mph
Humidity: 77%   Direction: 200°SSW
Pressure: 29.69"   Gusts: 30mph
Location:  44.84°N, 122.87°W
Report Text: KSLE 260056Z 20015G26KT 10SM SCT034 BKN050 OVC080 13/09 A2969 RMK AO2 PK WND 23035/0011 RAB02E50 PRESRR SLP052 P0000 T01330094
Loading
Personal Weather Stations






























Interactive Weather Map
Tropical Storm Tracking
New forecast layout! Learn more

10-Day Weather Forecast

Advertisements
Track Severe Weather on mobile